sensor_id;sensor_type;location;lat;lon;timestamp;temperature;humidity
34406;DHT22;20658;45.630;8.886;2022-11-21T00:01:53;4.00;93.30
34406;DHT22;20658;45.630;8.886;2022-11-21T00:04:30;4.00;93.60
34406;DHT22;20658;45.630;8.886;2022-11-21T00:06:58;4.00;93.60
34406;DHT22;20658;45.630;8.886;2022-11-21T00:09:31;4.00;93.50
34406;DHT22;20658;45.630;8.886;2022-11-21T00:12:07;4.20;93.70
34406;DHT22;20658;45.630;8.886;2022-11-21T00:14:40;3.90;93.70
34406;DHT22;20658;45.630;8.886;2022-11-21T00:17:09;3.90;93.60
34406;DHT22;20658;45.630;8.886;2022-11-21T00:19:39;3.90;93.80
34406;DHT22;20658;45.630;8.886;2022-11-21T00:22:12;3.90;93.70
34406;DHT22;20658;45.630;8.886;2022-11-21T00:24:40;3.80;93.50
34406;DHT22;20658;45.630;8.886;2022-11-21T00:27:14;3.80;93.60
34406;DHT22;20658;45.630;8.886;2022-11-21T00:29:47;3.80;93.80
34406;DHT22;20658;45.630;8.886;2022-11-21T00:32:20;3.80;93.90
34406;DHT22;20658;45.630;8.886;2022-11-21T00:34:55;3.90;94.00
34406;DHT22;20658;45.630;8.886;2022-11-21T00:37:23;3.70;93.80
34406;DHT22;20658;45.630;8.886;2022-11-21T00:39:52;3.70;94.30
34406;DHT22;20658;45.630;8.886;2022-11-21T00:42:25;3.70;94.30
34406;DHT22;20658;45.630;8.886;2022-11-21T00:44:59;3.70;94.30
34406;DHT22;20658;45.630;8.886;2022-11-21T00:47:32;3.70;94.30
34406;DHT22;20658;45.630;8.886;2022-11-21T00:50:09;3.70;94.30
34406;DHT22;20658;45.630;8.886;2022-11-21T00:52:42;3.60;94.20
34406;DHT22;20658;45.630;8.886;2022-11-21T00:55:15;3.60;94.20
34406;DHT22;20658;45.630;8.886;2022-11-21T00:57:49;3.60;94.20
34406;DHT22;20658;45.630;8.886;2022-11-21T01:00:22;3.60;94.20
34406;DHT22;20658;45.630;8.886;2022-11-21T01:02:56;3.60;94.20
34406;DHT22;20658;45.630;8.886;2022-11-21T01:05:32;4.10;94.20
34406;DHT22;20658;45.630;8.886;2022-11-21T01:08:00;3.50;93.80
34406;DHT22;20658;45.630;8.886;2022-11-21T01:10:34;3.80;94.00
34406;DHT22;20658;45.630;8.886;2022-11-21T01:13:07;3.90;94.00
34406;DHT22;20658;45.630;8.886;2022-11-21T01:15:36;3.50;93.80
34406;DHT22;20658;45.630;8.886;2022-11-21T01:18:04;3.50;93.70
34406;DHT22;20658;45.630;8.886;2022-11-21T01:20:37;3.50;93.80
34406;DHT22;20658;45.630;8.886;2022-11-21T01:23:06;3.50;93.70
34406;DHT22;20658;45.630;8.886;2022-11-21T01:25:39;3.50;93.40
34406;DHT22;20658;45.630;8.886;2022-11-21T01:28:13;3.50;93.50
34406;DHT22;20658;45.630;8.886;2022-11-21T01:30:46;3.40;93.50
34406;DHT22;20658;45.630;8.886;2022-11-21T01:33:19;3.40;93.80
34406;DHT22;20658;45.630;8.886;2022-11-21T01:35:49;3.40;93.80
34406;DHT22;20658;45.630;8.886;2022-11-21T01:38:17;3.40;93.70
34406;DHT22;20658;45.630;8.886;2022-11-21T01:40:51;3.60;93.80
34406;DHT22;20658;45.630;8.886;2022-11-21T01:43:19;3.40;93.40
34406;DHT22;20658;45.630;8.886;2022-11-21T01:45:54;3.30;93.30
34406;DHT22;20658;45.630;8.886;2022-11-21T01:48:28;3.30;93.20
34406;DHT22;20658;45.630;8.886;2022-11-21T01:51:10;3.50;93.00
34406;DHT22;20658;45.630;8.886;2022-11-21T01:53:52;3.30;92.60
34406;DHT22;20658;45.630;8.886;2022-11-21T01:56:29;3.30;92.50
34406;DHT22;20658;45.630;8.886;2022-11-21T01:59:06;3.30;92.40
34406;DHT22;20658;45.630;8.886;2022-11-21T02:01:43;3.30;93.00
34406;DHT22;20658;45.630;8.886;2022-11-21T02:04:19;3.30;93.20
34406;DHT22;20658;45.630;8.886;2022-11-21T02:06:50;3.20;92.90
34406;DHT22;20658;45.630;8.886;2022-11-21T02:09:19;3.20;93.00
34406;DHT22;20658;45.630;8.886;2022-11-21T02:11:50;3.20;92.90
34406;DHT22;20658;45.630;8.886;2022-11-21T02:14:25;3.10;92.90
34406;DHT22;20658;45.630;8.886;2022-11-21T02:17:03;3.10;93.30
34406;DHT22;20658;45.630;8.886;2022-11-21T02:19:37;3.10;94.00
34406;DHT22;20658;45.630;8.886;2022-11-21T02:22:15;3.00;93.90
34406;DHT22;20658;45.630;8.886;2022-11-21T02:25:00;3.00;94.20
34406;DHT22;20658;45.630;8.886;2022-11-21T02:27:31;3.40;94.50
34406;DHT22;20658;45.630;8.886;2022-11-21T02:30:07;2.90;94.60
34406;DHT22;20658;45.630;8.886;2022-11-21T02:32:42;2.90;94.70
34406;DHT22;20658;45.630;8.886;2022-11-21T02:35:18;2.90;94.90
34406;DHT22;20658;45.630;8.886;2022-11-21T02:37:48;2.90;95.00
34406;DHT22;20658;45.630;8.886;2022-11-21T02:40:28;2.90;95.10
34406;DHT22;20658;45.630;8.886;2022-11-21T02:43:08;2.90;95.60
34406;DHT22;20658;45.630;8.886;2022-11-21T02:45:44;2.90;95.40
34406;DHT22;20658;45.630;8.886;2022-11-21T02:48:18;2.90;95.10
34406;DHT22;20658;45.630;8.886;2022-11-21T02:50:51;2.90;95.10
34406;DHT22;20658;45.630;8.886;2022-11-21T02:53:25;3.30;95.20
34406;DHT22;20658;45.630;8.886;2022-11-21T02:55:54;2.80;94.80
34406;DHT22;20658;45.630;8.886;2022-11-21T02:58:23;2.80;94.90
34406;DHT22;20658;45.630;8.886;2022-11-21T03:00:56;2.80;94.80
34406;DHT22;20658;45.630;8.886;2022-11-21T03:03:29;2.80;95.10
34406;DHT22;20658;45.630;8.886;2022-11-21T03:06:03;2.80;95.00
34406;DHT22;20658;45.630;8.886;2022-11-21T03:08:36;2.80;94.90
34406;DHT22;20658;45.630;8.886;2022-11-21T03:11:06;2.70;95.00
34406;DHT22;20658;45.630;8.886;2022-11-21T03:13:39;2.70;95.40
34406;DHT22;20658;45.630;8.886;2022-11-21T03:16:12;2.70;95.20
34406;DHT22;20658;45.630;8.886;2022-11-21T03:18:46;2.60;95.30
34406;DHT22;20658;45.630;8.886;2022-11-21T03:21:19;2.60;95.30
34406;DHT22;20658;45.630;8.886;2022-11-21T03:23:48;3.00;96.30
34406;DHT22;20658;45.630;8.886;2022-11-21T03:26:22;2.60;96.30
34406;DHT22;20658;45.630;8.886;2022-11-21T03:28:56;2.60;96.40
34406;DHT22;20658;45.630;8.886;2022-11-21T03:31:29;2.70;96.30
34406;DHT22;20658;45.630;8.886;2022-11-21T03:34:03;2.50;96.60
34406;DHT22;20658;45.630;8.886;2022-11-21T03:36:36;2.50;96.20
34406;DHT22;20658;45.630;8.886;2022-11-21T03:39:09;2.40;96.00
34406;DHT22;20658;45.630;8.886;2022-11-21T03:41:44;2.40;96.20
34406;DHT22;20658;45.630;8.886;2022-11-21T03:44:18;2.30;96.10
34406;DHT22;20658;45.630;8.886;2022-11-21T03:46:51;2.30;96.50
34406;DHT22;20658;45.630;8.886;2022-11-21T03:49:24;2.40;97.10
34406;DHT22;20658;45.630;8.886;2022-11-21T03:51:58;2.40;97.10
34406;DHT22;20658;45.630;8.886;2022-11-21T03:54:31;2.40;97.00
34406;DHT22;20658;45.630;8.886;2022-11-21T03:57:06;2.30;96.70
34406;DHT22;20658;45.630;8.886;2022-11-21T03:59:39;2.60;96.80
34406;DHT22;20658;45.630;8.886;2022-11-21T04:02:13;2.30;96.60
34406;DHT22;20658;45.630;8.886;2022-11-21T04:04:46;2.30;96.50
34406;DHT22;20658;45.630;8.886;2022-11-21T04:07:19;2.30;96.40
34406;DHT22;20658;45.630;8.886;2022-11-21T04:09:53;2.30;96.20
34406;DHT22;20658;45.630;8.886;2022-11-21T04:12:27;2.30;96.00
34406;DHT22;20658;45.630;8.886;2022-11-21T04:15:01;2.80;96.00
34406;DHT22;20658;45.630;8.886;2022-11-21T04:17:34;2.30;95.70
34406;DHT22;20658;45.630;8.886;2022-11-21T04:20:09;2.30;95.80
34406;DHT22;20658;45.630;8.886;2022-11-21T04:22:43;2.30;96.00
34406;DHT22;20658;45.630;8.886;2022-11-21T04:25:16;2.30;95.90
34406;DHT22;20658;45.630;8.886;2022-11-21T04:27:55;2.30;95.80
34406;DHT22;20658;45.630;8.886;2022-11-21T04:30:29;2.30;96.00
34406;DHT22;20658;45.630;8.886;2022-11-21T04:33:03;2.50;96.10
34406;DHT22;20658;45.630;8.886;2022-11-21T04:35:36;2.30;96.00
34406;DHT22;20658;45.630;8.886;2022-11-21T04:38:10;2.30;95.90
34406;DHT22;20658;45.630;8.886;2022-11-21T04:40:43;2.30;96.00
34406;DHT22;20658;45.630;8.886;2022-11-21T04:43:18;2.30;95.90
34406;DHT22;20658;45.630;8.886;2022-11-21T04:45:51;2.30;95.70
34406;DHT22;20658;45.630;8.886;2022-11-21T04:48:25;2.30;95.60
34406;DHT22;20658;45.630;8.886;2022-11-21T04:50:58;2.30;95.70
34406;DHT22;20658;45.630;8.886;2022-11-21T04:53:32;2.50;95.80
34406;DHT22;20658;45.630;8.886;2022-11-21T04:56:03;2.20;95.70
34406;DHT22;20658;45.630;8.886;2022-11-21T04:58:38;2.70;96.20
34406;DHT22;20658;45.630;8.886;2022-11-21T05:01:11;2.20;95.90
34406;DHT22;20658;45.630;8.886;2022-11-21T05:03:45;2.10;95.90
34406;DHT22;20658;45.630;8.886;2022-11-21T05:06:18;2.10;96.10
34406;DHT22;20658;45.630;8.886;2022-11-21T05:08:51;2.10;96.10
34406;DHT22;20658;45.630;8.886;2022-11-21T05:11:25;2.10;96.10
34406;DHT22;20658;45.630;8.886;2022-11-21T05:14:17;2.10;96.00
34406;DHT22;20658;45.630;8.886;2022-11-21T05:16:50;2.10;96.00
34406;DHT22;20658;45.630;8.886;2022-11-21T05:19:24;2.20;96.10
34406;DHT22;20658;45.630;8.886;2022-11-21T05:21:58;2.10;95.70
34406;DHT22;20658;45.630;8.886;2022-11-21T05:24:31;2.10;95.70
34406;DHT22;20658;45.630;8.886;2022-11-21T05:27:04;2.10;95.70
34406;DHT22;20658;45.630;8.886;2022-11-21T05:29:39;2.10;95.60
34406;DHT22;20658;45.630;8.886;2022-11-21T05:32:13;2.10;95.80
34406;DHT22;20658;45.630;8.886;2022-11-21T05:34:46;2.10;95.90
34406;DHT22;20658;45.630;8.886;2022-11-21T05:37:19;2.00;95.90
34406;DHT22;20658;45.630;8.886;2022-11-21T05:39:53;2.00;95.90
34406;DHT22;20658;45.630;8.886;2022-11-21T05:42:26;2.00;96.10
34406;DHT22;20658;45.630;8.886;2022-11-21T05:45:15;2.00;96.40
34406;DHT22;20658;45.630;8.886;2022-11-21T05:47:48;2.00;96.30
34406;DHT22;20658;45.630;8.886;2022-11-21T05:50:22;2.00;96.20
34406;DHT22;20658;45.630;8.886;2022-11-21T05:52:55;2.00;96.40
34406;DHT22;20658;45.630;8.886;2022-11-21T05:55:33;2.00;96.20
34406;DHT22;20658;45.630;8.886;2022-11-21T05:58:06;2.00;96.40
34406;DHT22;20658;45.630;8.886;2022-11-21T06:00:42;2.00;96.40
34406;DHT22;20658;45.630;8.886;2022-11-21T06:03:11;1.90;96.60
34406;DHT22;20658;45.630;8.886;2022-11-21T06:06:05;1.90;96.90
34406;DHT22;20658;45.630;8.886;2022-11-21T06:08:36;1.90;96.80
34406;DHT22;20658;45.630;8.886;2022-11-21T06:11:12;1.90;97.10
34406;DHT22;20658;45.630;8.886;2022-11-21T06:13:46;1.90;97.10
34406;DHT22;20658;45.630;8.886;2022-11-21T06:16:21;1.90;97.20
34406;DHT22;20658;45.630;8.886;2022-11-21T06:18:55;1.80;97.00
34406;DHT22;20658;45.630;8.886;2022-11-21T06:21:28;1.80;97.20
34406;DHT22;20658;45.630;8.886;2022-11-21T06:24:02;1.80;97.40
34406;DHT22;20658;45.630;8.886;2022-11-21T06:26:36;1.80;97.40
34406;DHT22;20658;45.630;8.886;2022-11-21T06:29:10;1.90;97.40
34406;DHT22;20658;45.630;8.886;2022-11-21T06:31:44;1.80;97.30
34406;DHT22;20658;45.630;8.886;2022-11-21T06:34:18;1.90;97.40
34406;DHT22;20658;45.630;8.886;2022-11-21T06:36:51;1.90;97.50
34406;DHT22;20658;45.630;8.886;2022-11-21T06:39:24;2.00;97.50
34406;DHT22;20658;45.630;8.886;2022-11-21T06:41:58;2.00;97.20
34406;DHT22;20658;45.630;8.886;2022-11-21T06:44:31;2.00;97.20
34406;DHT22;20658;45.630;8.886;2022-11-21T06:47:06;2.00;97.30
34406;DHT22;20658;45.630;8.886;2022-11-21T06:49:39;2.30;97.10
34406;DHT22;20658;45.630;8.886;2022-11-21T06:52:13;2.00;96.80
34406;DHT22;20658;45.630;8.886;2022-11-21T06:54:47;2.10;96.60
34406;DHT22;20658;45.630;8.886;2022-11-21T06:57:20;2.10;96.40
34406;DHT22;20658;45.630;8.886;2022-11-21T06:59:54;2.10;96.20
34406;DHT22;20658;45.630;8.886;2022-11-21T07:02:28;2.10;96.00
34406;DHT22;20658;45.630;8.886;2022-11-21T07:05:01;2.20;96.00
34406;DHT22;20658;45.630;8.886;2022-11-21T07:07:35;2.20;95.90
34406;DHT22;20658;45.630;8.886;2022-11-21T07:10:09;2.30;95.80
34406;DHT22;20658;45.630;8.886;2022-11-21T07:12:42;2.30;95.70
34406;DHT22;20658;45.630;8.886;2022-11-21T07:15:33;2.30;95.60
34406;DHT22;20658;45.630;8.886;2022-11-21T07:18:08;2.40;95.50
34406;DHT22;20658;45.630;8.886;2022-11-21T07:20:42;2.50;95.50
34406;DHT22;20658;45.630;8.886;2022-11-21T07:23:16;2.50;95.20
34406;DHT22;20658;45.630;8.886;2022-11-21T07:25:49;2.60;94.80
34406;DHT22;20658;45.630;8.886;2022-11-21T07:28:22;2.70;94.70
34406;DHT22;20658;45.630;8.886;2022-11-21T07:30:56;2.70;94.50
34406;DHT22;20658;45.630;8.886;2022-11-21T07:33:31;2.90;94.50
34406;DHT22;20658;45.630;8.886;2022-11-21T07:36:04;3.40;94.30
34406;DHT22;20658;45.630;8.886;2022-11-21T07:38:38;3.00;93.90
34406;DHT22;20658;45.630;8.886;2022-11-21T07:41:12;3.10;93.70
34406;DHT22;20658;45.630;8.886;2022-11-21T07:43:45;3.20;93.10
34406;DHT22;20658;45.630;8.886;2022-11-21T07:46:19;3.30;92.80
34406;DHT22;20658;45.630;8.886;2022-11-21T07:48:53;3.50;92.60
34406;DHT22;20658;45.630;8.886;2022-11-21T07:51:27;3.60;91.90
34406;DHT22;20658;45.630;8.886;2022-11-21T07:54:00;3.70;91.50
34406;DHT22;20658;45.630;8.886;2022-11-21T07:56:33;3.90;91.70
34406;DHT22;20658;45.630;8.886;2022-11-21T07:59:07;4.40;90.70
34406;DHT22;20658;45.630;8.886;2022-11-21T08:01:40;4.00;90.10
34406;DHT22;20658;45.630;8.886;2022-11-21T08:04:15;4.10;89.70
34406;DHT22;20658;45.630;8.886;2022-11-21T08:06:48;4.20;89.40
34406;DHT22;20658;45.630;8.886;2022-11-21T08:09:21;4.40;89.20
34406;DHT22;20658;45.630;8.886;2022-11-21T08:11:55;4.50;88.50
34406;DHT22;20658;45.630;8.886;2022-11-21T08:14:28;4.60;88.00
34406;DHT22;20658;45.630;8.886;2022-11-21T08:17:01;4.70;87.80
34406;DHT22;20658;45.630;8.886;2022-11-21T08:19:37;4.70;87.40
34406;DHT22;20658;45.630;8.886;2022-11-21T08:22:10;4.80;87.30
34406;DHT22;20658;45.630;8.886;2022-11-21T08:24:43;5.00;87.10
34406;DHT22;20658;45.630;8.886;2022-11-21T08:27:17;5.20;86.60
34406;DHT22;20658;45.630;8.886;2022-11-21T08:29:52;5.70;85.40
34406;DHT22;20658;45.630;8.886;2022-11-21T08:32:25;5.30;84.70
34406;DHT22;20658;45.630;8.886;2022-11-21T08:35:00;5.30;83.60
34406;DHT22;20658;45.630;8.886;2022-11-21T08:37:33;5.90;83.70
34406;DHT22;20658;45.630;8.886;2022-11-21T08:40:07;5.50;83.40
34406;DHT22;20658;45.630;8.886;2022-11-21T08:42:41;5.60;83.90
34406;DHT22;20658;45.630;8.886;2022-11-21T08:45:14;5.70;83.90
34406;DHT22;20658;45.630;8.886;2022-11-21T08:47:48;5.80;83.40
34406;DHT22;20658;45.630;8.886;2022-11-21T08:50:23;5.90;83.00
34406;DHT22;20658;45.630;8.886;2022-11-21T08:52:59;6.10;82.30
34406;DHT22;20658;45.630;8.886;2022-11-21T08:55:33;6.30;81.00
34406;DHT22;20658;45.630;8.886;2022-11-21T08:58:06;6.40;80.80
34406;DHT22;20658;45.630;8.886;2022-11-21T09:00:39;6.50;78.90
34406;DHT22;20658;45.630;8.886;2022-11-21T09:03:13;6.60;78.80
34406;DHT22;20658;45.630;8.886;2022-11-21T09:05:47;6.80;77.90
34406;DHT22;20658;45.630;8.886;2022-11-21T09:08:21;6.90;75.90
34406;DHT22;20658;45.630;8.886;2022-11-21T09:10:54;7.10;75.70
34406;DHT22;20658;45.630;8.886;2022-11-21T09:13:28;7.20;75.30
34406;DHT22;20658;45.630;8.886;2022-11-21T09:15:57;7.20;74.90
34406;DHT22;20658;45.630;8.886;2022-11-21T09:18:51;7.30;74.60
34406;DHT22;20658;45.630;8.886;2022-11-21T09:21:25;7.40;74.50
34406;DHT22;20658;45.630;8.886;2022-11-21T09:23:59;7.60;74.20
34406;DHT22;20658;45.630;8.886;2022-11-21T09:26:32;7.70;73.90
34406;DHT22;20658;45.630;8.886;2022-11-21T09:29:06;7.90;73.40
34406;DHT22;20658;45.630;8.886;2022-11-21T09:31:42;8.00;71.70
34406;DHT22;20658;45.630;8.886;2022-11-21T09:34:15;8.10;72.00
34406;DHT22;20658;45.630;8.886;2022-11-21T09:36:51;8.40;71.10
34406;DHT22;20658;45.630;8.886;2022-11-21T09:39:24;8.50;70.50
34406;DHT22;20658;45.630;8.886;2022-11-21T09:42:07;8.60;69.30
34406;DHT22;20658;45.630;8.886;2022-11-21T09:45:07;8.70;68.90
34406;DHT22;20658;45.630;8.886;2022-11-21T09:47:45;8.80;68.40
34406;DHT22;20658;45.630;8.886;2022-11-21T09:50:26;8.80;68.00
34406;DHT22;20658;45.630;8.886;2022-11-21T09:53:05;9.00;68.00
34406;DHT22;20658;45.630;8.886;2022-11-21T09:55:43;8.80;66.50
34406;DHT22;20658;45.630;8.886;2022-11-21T09:58:24;8.80;66.90
34406;DHT22;20658;45.630;8.886;2022-11-21T10:01:00;9.00;67.00
34406;DHT22;20658;45.630;8.886;2022-11-21T10:03:40;9.20;66.90
34406;DHT22;20658;45.630;8.886;2022-11-21T10:06:18;9.40;65.60
34406;DHT22;20658;45.630;8.886;2022-11-21T10:09:01;9.60;64.70
34406;DHT22;20658;45.630;8.886;2022-11-21T10:11:42;9.70;64.40
34406;DHT22;20658;45.630;8.886;2022-11-21T10:14:47;9.80;64.10
34406;DHT22;20658;45.630;8.886;2022-11-21T10:17:33;10.00;63.60
34406;DHT22;20658;45.630;8.886;2022-11-21T10:20:26;10.20;62.10
34406;DHT22;20658;45.630;8.886;2022-11-21T10:23:22;10.20;60.90
34406;DHT22;20658;45.630;8.886;2022-11-21T10:26:22;10.20;59.30
34406;DHT22;20658;45.630;8.886;2022-11-21T10:29:09;10.50;59.90
34406;DHT22;20658;45.630;8.886;2022-11-21T10:31:48;10.50;58.10
34406;DHT22;20658;45.630;8.886;2022-11-21T10:34:25;10.50;57.60
34406;DHT22;20658;45.630;8.886;2022-11-21T10:37:06;10.50;55.90
34406;DHT22;20658;45.630;8.886;2022-11-21T10:39:48;10.50;55.40
34406;DHT22;20658;45.630;8.886;2022-11-21T10:42:29;10.70;55.80
34406;DHT22;20658;45.630;8.886;2022-11-21T10:45:10;10.70;56.90
34406;DHT22;20658;45.630;8.886;2022-11-21T10:47:51;10.80;55.10
34406;DHT22;20658;45.630;8.886;2022-11-21T10:50:47;10.90;55.50
34406;DHT22;20658;45.630;8.886;2022-11-21T10:53:26;11.00;53.90
34406;DHT22;20658;45.630;8.886;2022-11-21T10:56:20;11.00;53.30
34406;DHT22;20658;45.630;8.886;2022-11-21T10:58:56;10.90;52.50
34406;DHT22;20658;45.630;8.886;2022-11-21T11:01:31;10.80;52.40
34406;DHT22;20658;45.630;8.886;2022-11-21T11:04:15;10.80;52.60
34406;DHT22;20658;45.630;8.886;2022-11-21T11:06:50;10.90;52.60
34406;DHT22;20658;45.630;8.886;2022-11-21T11:09:27;11.00;50.90
34406;DHT22;20658;45.630;8.886;2022-11-21T11:12:21;11.10;49.90
34406;DHT22;20658;45.630;8.886;2022-11-21T11:14:57;11.20;49.40
34406;DHT22;20658;45.630;8.886;2022-11-21T11:17:32;11.20;49.70
34406;DHT22;20658;45.630;8.886;2022-11-21T11:20:28;11.20;50.40
34406;DHT22;20658;45.630;8.886;2022-11-21T11:23:15;11.10;50.10
34406;DHT22;20658;45.630;8.886;2022-11-21T11:25:58;11.20;50.20
34406;DHT22;20658;45.630;8.886;2022-11-21T11:28:34;11.20;50.60
34406;DHT22;20658;45.630;8.886;2022-11-21T11:31:10;11.30;50.20
34406;DHT22;20658;45.630;8.886;2022-11-21T11:33:52;11.60;49.70
34406;DHT22;20658;45.630;8.886;2022-11-21T11:36:36;11.70;48.70
34406;DHT22;20658;45.630;8.886;2022-11-21T11:39:17;11.70;47.30
34406;DHT22;20658;45.630;8.886;2022-11-21T11:45:54;11.80;47.60
34406;DHT22;20658;45.630;8.886;2022-11-21T11:48:55;11.70;46.50
34406;DHT22;20658;45.630;8.886;2022-11-21T11:51:33;11.70;46.20
34406;DHT22;20658;45.630;8.886;2022-11-21T11:54:14;11.80;46.00
34406;DHT22;20658;45.630;8.886;2022-11-21T11:56:50;11.90;45.90
34406;DHT22;20658;45.630;8.886;2022-11-21T11:59:28;12.10;45.10
34406;DHT22;20658;45.630;8.886;2022-11-21T12:02:06;12.30;45.30
34406;DHT22;20658;45.630;8.886;2022-11-21T12:04:47;12.40;43.50
34406;DHT22;20658;45.630;8.886;2022-11-21T12:07:27;12.30;43.10
34406;DHT22;20658;45.630;8.886;2022-11-21T12:10:05;12.40;44.30
34406;DHT22;20658;45.630;8.886;2022-11-21T12:12:47;12.40;43.00
34406;DHT22;20658;45.630;8.886;2022-11-21T12:15:24;12.40;42.80
34406;DHT22;20658;45.630;8.886;2022-11-21T12:18:19;12.40;42.40
34406;DHT22;20658;45.630;8.886;2022-11-21T12:21:04;12.50;42.80
34406;DHT22;20658;45.630;8.886;2022-11-21T12:23:44;12.50;42.10
34406;DHT22;20658;45.630;8.886;2022-11-21T12:26:35;12.50;43.10
34406;DHT22;20658;45.630;8.886;2022-11-21T12:29:35;12.40;43.50
34406;DHT22;20658;45.630;8.886;2022-11-21T12:32:27;12.40;42.70
34406;DHT22;20658;45.630;8.886;2022-11-21T12:35:25;12.60;43.20
34406;DHT22;20658;45.630;8.886;2022-11-21T12:38:17;12.50;42.90
34406;DHT22;20658;45.630;8.886;2022-11-21T12:41:05;12.60;43.10
34406;DHT22;20658;45.630;8.886;2022-11-21T12:44:12;12.90;43.40
34406;DHT22;20658;45.630;8.886;2022-11-21T12:47:01;12.70;43.00
34406;DHT22;20658;45.630;8.886;2022-11-21T12:49:53;12.80;42.90
34406;DHT22;20658;45.630;8.886;2022-11-21T12:52:50;12.80;42.70
34406;DHT22;20658;45.630;8.886;2022-11-21T12:55:46;12.80;43.10
34406;DHT22;20658;45.630;8.886;2022-11-21T12:58:25;12.80;42.50
34406;DHT22;20658;45.630;8.886;2022-11-21T13:01:18;12.70;42.70
34406;DHT22;20658;45.630;8.886;2022-11-21T13:03:58;12.70;43.60
34406;DHT22;20658;45.630;8.886;2022-11-21T13:06:36;12.80;42.70
34406;DHT22;20658;45.630;8.886;2022-11-21T13:09:15;12.80;43.50
34406;DHT22;20658;45.630;8.886;2022-11-21T13:11:58;12.90;42.10
34406;DHT22;20658;45.630;8.886;2022-11-21T13:14:39;12.80;42.60
34406;DHT22;20658;45.630;8.886;2022-11-21T13:17:25;12.80;42.90
34406;DHT22;20658;45.630;8.886;2022-11-21T13:20:17;12.80;42.70
34406;DHT22;20658;45.630;8.886;2022-11-21T13:22:55;12.80;41.80
34406;DHT22;20658;45.630;8.886;2022-11-21T13:25:43;12.90;42.40
34406;DHT22;20658;45.630;8.886;2022-11-21T13:28:35;12.90;42.00
34406;DHT22;20658;45.630;8.886;2022-11-21T13:31:29;12.90;42.50
34406;DHT22;20658;45.630;8.886;2022-11-21T13:34:04;12.90;42.30
34406;DHT22;20658;45.630;8.886;2022-11-21T13:36:42;13.10;42.80
34406;DHT22;20658;45.630;8.886;2022-11-21T13:39:26;12.90;42.30
34406;DHT22;20658;45.630;8.886;2022-11-21T13:42:06;12.90;42.20
34406;DHT22;20658;45.630;8.886;2022-11-21T13:44:55;12.90;42.30
34406;DHT22;20658;45.630;8.886;2022-11-21T13:47:48;13.10;42.00
34406;DHT22;20658;45.630;8.886;2022-11-21T13:50:55;12.90;42.40
34406;DHT22;20658;45.630;8.886;2022-11-21T13:57:31;12.90;43.00
34406;DHT22;20658;45.630;8.886;2022-11-21T14:00:43;12.90;41.70
34406;DHT22;20658;45.630;8.886;2022-11-21T14:03:47;12.90;41.20
34406;DHT22;20658;45.630;8.886;2022-11-21T14:06:46;12.90;42.30
34406;DHT22;20658;45.630;8.886;2022-11-21T14:09:22;12.90;42.10
34406;DHT22;20658;45.630;8.886;2022-11-21T14:12:00;12.80;42.20
34406;DHT22;20658;45.630;8.886;2022-11-21T14:14:38;12.80;43.40
34406;DHT22;20658;45.630;8.886;2022-11-21T14:17:25;12.80;43.50
34406;DHT22;20658;45.630;8.886;2022-11-21T14:20:12;12.70;43.70
34406;DHT22;20658;45.630;8.886;2022-11-21T14:22:57;12.70;44.60
34406;DHT22;20658;45.630;8.886;2022-11-21T14:25:36;12.60;44.20
34406;DHT22;20658;45.630;8.886;2022-11-21T14:28:19;12.70;44.70
34406;DHT22;20658;45.630;8.886;2022-11-21T14:30:56;12.50;45.00
34406;DHT22;20658;45.630;8.886;2022-11-21T14:33:32;12.50;44.40
34406;DHT22;20658;45.630;8.886;2022-11-21T14:36:08;12.50;45.00
34406;DHT22;20658;45.630;8.886;2022-11-21T14:38:47;12.40;44.80
34406;DHT22;20658;45.630;8.886;2022-11-21T14:41:30;12.40;45.30
34406;DHT22;20658;45.630;8.886;2022-11-21T14:44:16;12.30;45.60
34406;DHT22;20658;45.630;8.886;2022-11-21T14:47:04;12.20;45.80
34406;DHT22;20658;45.630;8.886;2022-11-21T14:49:49;12.20;46.50
34406;DHT22;20658;45.630;8.886;2022-11-21T14:52:21;12.10;46.20
34406;DHT22;20658;45.630;8.886;2022-11-21T14:54:58;12.10;46.20
34406;DHT22;20658;45.630;8.886;2022-11-21T14:57:36;12.00;46.50
34406;DHT22;20658;45.630;8.886;2022-11-21T15:00:15;11.90;46.70
34406;DHT22;20658;45.630;8.886;2022-11-21T15:02:53;11.80;47.10
34406;DHT22;20658;45.630;8.886;2022-11-21T15:05:31;11.80;47.50
34406;DHT22;20658;45.630;8.886;2022-11-21T15:08:08;11.70;47.70
34406;DHT22;20658;45.630;8.886;2022-11-21T15:10:42;11.70;48.10
34406;DHT22;20658;45.630;8.886;2022-11-21T15:13:16;11.70;48.50
34406;DHT22;20658;45.630;8.886;2022-11-21T15:15:52;11.60;49.00
34406;DHT22;20658;45.630;8.886;2022-11-21T15:18:27;11.50;49.50
34406;DHT22;20658;45.630;8.886;2022-11-21T15:20:58;11.50;50.30
34406;DHT22;20658;45.630;8.886;2022-11-21T15:23:35;11.60;51.50
34406;DHT22;20658;45.630;8.886;2022-11-21T15:26:27;11.40;52.00
34406;DHT22;20658;45.630;8.886;2022-11-21T15:29:15;11.60;52.40
34406;DHT22;20658;45.630;8.886;2022-11-21T15:32:06;11.20;51.90
34406;DHT22;20658;45.630;8.886;2022-11-21T15:34:35;11.20;51.70
34406;DHT22;20658;45.630;8.886;2022-11-21T15:37:15;11.20;52.70
34406;DHT22;20658;45.630;8.886;2022-11-21T15:39:50;11.10;52.80
34406;DHT22;20658;45.630;8.886;2022-11-21T15:42:36;11.10;53.40
34406;DHT22;20658;45.630;8.886;2022-11-21T15:45:24;11.10;53.60
34406;DHT22;20658;45.630;8.886;2022-11-21T15:47:53;11.00;54.50
34406;DHT22;20658;45.630;8.886;2022-11-21T15:50:22;11.00;54.60
34406;DHT22;20658;45.630;8.886;2022-11-21T15:52:58;10.90;55.20
34406;DHT22;20658;45.630;8.886;2022-11-21T15:55:31;10.90;55.10
34406;DHT22;20658;45.630;8.886;2022-11-21T15:58:04;10.80;55.40
34406;DHT22;20658;45.630;8.886;2022-11-21T16:00:38;10.80;56.10
34406;DHT22;20658;45.630;8.886;2022-11-21T16:03:11;10.80;56.20
34406;DHT22;20658;45.630;8.886;2022-11-21T16:05:45;10.80;56.40
34406;DHT22;20658;45.630;8.886;2022-11-21T16:08:19;10.80;56.50
34406;DHT22;20658;45.630;8.886;2022-11-21T16:10:53;10.70;57.00
34406;DHT22;20658;45.630;8.886;2022-11-21T16:13:26;11.10;57.60
34406;DHT22;20658;45.630;8.886;2022-11-21T16:16:01;10.70;57.70
34406;DHT22;20658;45.630;8.886;2022-11-21T16:18:35;10.70;57.60
34406;DHT22;20658;45.630;8.886;2022-11-21T16:21:06;10.70;57.80
34406;DHT22;20658;45.630;8.886;2022-11-21T16:23:37;10.70;58.20
34406;DHT22;20658;45.630;8.886;2022-11-21T16:26:10;10.60;58.30
34406;DHT22;20658;45.630;8.886;2022-11-21T16:28:44;10.60;58.20
34406;DHT22;20658;45.630;8.886;2022-11-21T16:31:18;10.60;58.60
34406;DHT22;20658;45.630;8.886;2022-11-21T16:33:50;10.60;59.00
34406;DHT22;20658;45.630;8.886;2022-11-21T16:36:25;10.50;59.20
34406;DHT22;20658;45.630;8.886;2022-11-21T16:39:01;10.50;59.40
34406;DHT22;20658;45.630;8.886;2022-11-21T16:41:34;10.50;60.00
34406;DHT22;20658;45.630;8.886;2022-11-21T16:44:11;10.50;60.20
34406;DHT22;20658;45.630;8.886;2022-11-21T16:46:46;10.50;60.30
34406;DHT22;20658;45.630;8.886;2022-11-21T16:49:22;10.40;60.20
34406;DHT22;20658;45.630;8.886;2022-11-21T16:51:55;10.70;60.10